createdAt,value
2019-05-22T00:02:25.058Z,23.63
2019-05-22T00:05:13.134Z,21.50
2019-05-22T00:07:44.753Z,21.07
2019-05-22T00:10:19.104Z,20.90
2019-05-22T00:12:52.295Z,20.20
2019-05-22T00:15:24.503Z,20.47
2019-05-22T00:17:57.193Z,19.97
2019-05-22T00:20:29.761Z,19.90
2019-05-22T00:23:02.023Z,19.93
2019-05-22T00:25:33.329Z,20.50
2019-05-22T00:28:03.248Z,20.17
2019-05-22T00:30:36.115Z,20.27
2019-05-22T00:33:08.136Z,19.63
2019-05-22T00:35:42.191Z,19.27
2019-05-22T00:38:11.780Z,19.23
2019-05-22T00:40:44.972Z,19.73
2019-05-22T00:43:18.715Z,19.53
2019-05-22T00:45:50.699Z,19.63
2019-05-22T00:48:24.259Z,18.70
2019-05-22T00:51:12.736Z,18.30
2019-05-22T00:53:49.746Z,19.17
2019-05-22T00:56:38.305Z,20.40
2019-05-22T00:59:14.203Z,20.33
2019-05-22T01:01:47.906Z,18.20
2019-05-22T01:04:23.224Z,17.80
2019-05-22T01:06:55.568Z,19.50
2019-05-22T01:09:32.730Z,18.67
2019-05-22T03:06:56.220Z,4.67
2019-05-22T03:09:29.829Z,4.90
2019-05-22T03:12:09.033Z,4.80
2019-05-22T03:14:39.891Z,4.93
2019-05-22T03:17:24.765Z,5.20
2019-05-22T03:19:56.606Z,5.40
2019-05-22T03:22:31.820Z,5.07
2019-05-22T03:25:06.743Z,5.27
2019-05-22T03:27:48.364Z,5.43
2019-05-22T03:30:25.389Z,5.87
2019-05-22T03:32:56.277Z,5.80
2019-05-22T03:35:28.043Z,6.07
2019-05-22T03:37:59.225Z,5.50
2019-05-22T03:40:30.895Z,6.53
2019-05-22T03:43:04.942Z,6.40
2019-05-22T03:45:36.856Z,7.33
2019-05-22T03:48:07.296Z,7.60
2019-05-22T03:50:37.665Z,7.27
2019-05-22T03:53:17.998Z,7.30
2019-05-22T03:55:48.475Z,7.57
2019-05-22T03:58:19.838Z,8.00
2019-05-22T04:00:54.160Z,7.77
2019-05-22T04:03:24.615Z,8.90
2019-05-22T04:05:54.264Z,7.97
2019-05-22T04:08:26.791Z,8.63
2019-05-22T04:10:59.962Z,9.00
2019-05-22T04:13:30.826Z,8.43
2019-05-22T04:16:00.446Z,9.37
2019-05-22T04:18:30.796Z,9.90
2019-05-22T04:21:04.021Z,10.10
2019-05-22T04:23:34.266Z,10.23
2019-05-22T04:26:11.585Z,11.20
2019-05-22T04:28:55.426Z,10.73
2019-05-22T04:31:43.321Z,11.30
2019-05-22T04:34:13.993Z,10.87
2019-05-22T04:36:43.755Z,11.70
2019-05-22T04:39:25.175Z,11.33
2019-05-22T04:41:55.037Z,10.93
2019-05-22T04:44:25.177Z,11.90
2019-05-22T04:46:54.612Z,11.93
2019-05-22T04:49:24.152Z,12.10
2019-05-22T04:51:53.603Z,11.07
2019-05-22T04:54:25.086Z,11.30
2019-05-22T04:56:56.056Z,11.50
2019-05-22T04:59:25.569Z,10.83
2019-05-22T05:01:56.118Z,11.67
2019-05-22T05:04:25.699Z,11.97
2019-05-22T05:06:55.392Z,12.03
2019-05-22T05:09:25.487Z,11.07
2019-05-22T05:11:54.628Z,11.80
2019-05-22T05:14:24.236Z,11.43
2019-05-22T05:16:54.161Z,11.97
2019-05-22T05:19:23.472Z,11.43
2019-05-22T05:21:54.495Z,10.87
2019-05-22T05:24:23.923Z,10.87
2019-05-22T05:26:53.895Z,11.20
2019-05-22T05:29:29.084Z,10.53
2019-05-22T05:31:58.879Z,10.63
2019-05-22T05:34:55.996Z,10.27
2019-05-22T05:37:26.251Z,10.17
2019-05-22T05:40:34.096Z,9.70
2019-05-22T05:43:04.641Z,9.13
2019-05-22T05:45:34.331Z,8.83
2019-05-22T05:48:07.271Z,8.90
2019-05-22T05:50:40.061Z,9.13
2019-05-22T05:53:19.402Z,8.67
2019-05-22T05:56:08.535Z,8.30
2019-05-22T05:58:38.405Z,8.73
2019-05-22T06:01:24.148Z,8.47
2019-05-22T06:03:54.286Z,9.17
2019-05-22T06:07:08.863Z,8.50
2019-05-22T06:09:38.511Z,8.67
2019-05-22T06:12:12.161Z,8.27
2019-05-22T06:14:42.048Z,8.20
2019-05-22T06:17:52.571Z,7.73
2019-05-22T06:20:22.974Z,7.03
2019-05-22T06:23:45.978Z,7.57
2019-05-22T06:26:28.387Z,7.30
2019-05-22T06:28:58.674Z,7.67
2019-05-22T06:31:40.966Z,7.30
2019-05-22T06:34:11.408Z,6.90
2019-05-22T06:36:43.271Z,7.13
2019-05-22T06:39:17.260Z,7.03
2019-05-22T06:41:52.198Z,7.57
2019-05-22T06:44:47.087Z,7.23
2019-05-22T06:47:20.773Z,7.10
2019-05-22T06:49:55.282Z,7.50
2019-05-22T06:52:25.024Z,7.07
2019-05-22T06:54:56.176Z,7.40
2019-05-22T06:57:28.507Z,6.43
2019-05-22T07:00:11.988Z,7.33
2019-05-22T07:02:32.538Z,6.33
2019-05-22T07:05:03.807Z,6.17
2019-05-22T07:07:33.741Z,5.20
2019-05-22T07:10:06.320Z,5.37
2019-05-22T07:12:35.916Z,4.60
2019-05-22T07:16:02.026Z,3.97
2019-05-22T07:18:31.985Z,4.03
2019-05-22T07:21:03.687Z,3.90
2019-05-22T07:23:36.399Z,3.40
2019-05-22T07:26:08.149Z,3.67
2019-05-22T07:28:44.230Z,3.57
2019-05-22T07:31:13.973Z,2.93
2019-05-22T07:33:45.792Z,3.57
2019-05-22T07:36:17.239Z,3.07
2019-05-22T07:38:53.874Z,3.30
2019-05-22T07:41:23.625Z,3.00
2019-05-22T07:43:52.986Z,3.00
2019-05-22T07:46:24.563Z,3.30
2019-05-22T07:48:55.233Z,3.30
2019-05-22T07:51:27.156Z,3.20
2019-05-22T07:53:57.139Z,3.10
2019-05-22T07:56:28.904Z,2.67
2019-05-22T07:59:04.728Z,2.83
2019-05-22T08:01:34.660Z,2.30
2019-05-22T08:04:04.648Z,2.60
2019-05-22T08:06:34.916Z,2.53
2019-05-22T08:09:06.136Z,2.47
2019-05-22T08:11:36.620Z,2.50
2019-05-22T08:14:06.605Z,2.27
2019-05-22T08:16:37.853Z,2.30
2019-05-22T08:19:07.179Z,2.43
2019-05-22T08:21:36.961Z,2.30
2019-05-22T08:24:08.071Z,2.77
2019-05-22T08:26:53.182Z,2.37
2019-05-22T08:29:10.851Z,2.47
2019-05-22T08:31:45.447Z,2.50
2019-05-22T08:34:16.552Z,2.10
2019-05-22T08:36:53.374Z,2.57
2019-05-22T08:39:24.680Z,3.30
2019-05-22T08:41:56.978Z,4.03
2019-05-22T08:44:26.558Z,3.63
2019-05-22T08:46:57.504Z,5.30
2019-05-22T08:49:27.728Z,4.87
2019-05-22T08:51:58.589Z,5.20
2019-05-22T08:54:28.548Z,5.63
2019-05-22T08:56:58.715Z,5.10
2019-05-22T08:59:28.078Z,5.93
2019-05-22T09:01:57.373Z,5.00
2019-05-22T09:04:26.616Z,5.40
2019-05-22T09:06:56.817Z,4.73
2019-05-22T09:09:28.211Z,5.20
2019-05-22T09:11:58.202Z,4.33
2019-05-22T09:14:27.556Z,4.53
2019-05-22T09:16:57.545Z,4.10
2019-05-22T09:19:27.197Z,3.70
2019-05-22T09:21:57.929Z,4.00
2019-05-22T09:24:28.850Z,3.80
2019-05-22T09:26:58.048Z,3.97
2019-05-22T09:29:28.335Z,3.77
2019-05-22T09:31:58.055Z,3.30
2019-05-22T09:34:30.476Z,3.70
2019-05-22T09:37:00.001Z,3.70
2019-05-22T09:39:29.446Z,3.23
2019-05-22T09:42:03.748Z,3.50
2019-05-22T09:44:32.905Z,3.60
2019-05-22T09:47:06.435Z,3.57
2019-05-22T09:49:37.605Z,4.70
2019-05-22T09:52:09.184Z,5.37
2019-05-22T09:54:39.261Z,5.53
2019-05-22T09:57:08.889Z,5.17
2019-05-22T09:59:38.057Z,5.50
2019-05-22T10:02:08.317Z,5.10
2019-05-22T10:04:39.087Z,5.50
2019-05-22T10:07:08.546Z,5.33
2019-05-22T10:09:38.720Z,5.80
2019-05-22T10:12:09.884Z,6.03
2019-05-22T10:14:39.732Z,6.10
2019-05-22T10:17:11.894Z,6.73
2019-05-22T10:19:41.529Z,8.23
2019-05-22T10:22:11.885Z,9.50
2019-05-22T10:24:42.369Z,8.27
2019-05-22T10:27:13.720Z,8.07
2019-05-22T10:29:43.286Z,7.67
2019-05-22T10:32:13.489Z,8.30
2019-05-22T10:34:43.568Z,10.07
2019-05-22T10:37:12.846Z,9.40
2019-05-22T10:39:42.590Z,9.30
2019-05-22T10:42:12.122Z,9.30
2019-05-22T10:44:41.604Z,8.57
2019-05-22T10:47:11.211Z,9.13
2019-05-22T10:49:40.655Z,9.87
2019-05-22T10:52:12.604Z,9.03
2019-05-22T10:54:42.082Z,10.03
2019-05-22T10:57:11.777Z,9.23
2019-05-22T10:59:43.146Z,9.10
2019-05-22T11:02:14.096Z,9.70
2019-05-22T11:04:43.919Z,9.53
2019-05-22T11:07:13.954Z,8.93
2019-05-22T11:09:44.872Z,7.27
2019-05-22T11:12:15.506Z,7.50
2019-05-22T11:14:48.210Z,9.00
2019-05-22T11:17:19.845Z,8.97
2019-05-22T11:19:49.832Z,7.00
2019-05-22T11:22:20.366Z,7.73
2019-05-22T11:24:51.261Z,6.63
2019-05-22T11:27:24.016Z,6.33
2019-05-22T11:29:53.576Z,5.93
2019-05-22T11:32:23.298Z,6.63
2019-05-22T11:34:52.588Z,5.27
2019-05-22T11:37:24.247Z,4.90
2019-05-22T11:39:55.903Z,4.87
2019-05-22T11:42:25.877Z,5.23
2019-05-22T11:44:56.053Z,7.20
2019-05-22T11:47:26.774Z,8.30
2019-05-22T11:49:56.611Z,7.73
2019-05-22T11:52:28.881Z,6.93
2019-05-22T11:54:59.020Z,7.90
2019-05-22T11:57:28.821Z,7.87
2019-05-22T11:59:58.409Z,7.20
2019-05-22T12:02:28.601Z,6.60
2019-05-22T12:04:59.485Z,6.80
2019-05-22T12:07:30.486Z,5.40
2019-05-22T12:10:00.649Z,4.57
2019-05-22T12:12:30.315Z,4.90
2019-05-22T12:15:01.213Z,5.80
2019-05-22T12:17:38.120Z,4.50
2019-05-22T12:20:03.364Z,5.63
2019-05-22T12:22:32.825Z,3.70
2019-05-22T12:25:02.022Z,3.80
2019-05-22T12:27:32.074Z,3.53
2019-05-22T12:30:02.575Z,3.50
2019-05-22T12:32:32.461Z,3.30
2019-05-22T12:35:02.934Z,3.50
2019-05-22T12:37:33.569Z,3.07
2019-05-22T12:40:03.216Z,3.23
2019-05-22T12:42:33.077Z,3.10
2019-05-22T12:45:03.610Z,5.57
2019-05-22T12:47:32.983Z,4.67
2019-05-22T12:50:04.776Z,4.50
2019-05-22T12:52:34.090Z,4.83
2019-05-22T12:55:04.096Z,3.73
2019-05-22T12:57:33.717Z,4.00
2019-05-22T13:00:03.530Z,4.20
2019-05-22T13:02:36.434Z,3.70
2019-05-22T13:05:06.164Z,3.80
2019-05-22T13:07:37.337Z,4.07
2019-05-22T13:10:07.603Z,3.80
2019-05-22T13:12:37.851Z,3.90
2019-05-22T13:15:10.280Z,4.27
2019-05-22T13:17:39.446Z,3.97
2019-05-22T13:20:12.607Z,4.10
2019-05-22T13:22:47.933Z,4.80
2019-05-22T13:25:20.168Z,5.23
2019-05-22T13:27:51.917Z,4.73
2019-05-22T13:30:28.221Z,4.40
2019-05-22T13:32:57.522Z,4.63
2019-05-22T13:35:30.796Z,5.00
2019-05-22T13:38:00.417Z,5.30
2019-05-22T13:40:30.349Z,4.90
2019-05-22T13:43:00.106Z,5.50
2019-05-22T13:45:30.370Z,5.00
2019-05-22T13:47:59.784Z,5.73
2019-05-22T13:50:29.407Z,5.70
2019-05-22T13:53:00.824Z,5.30
2019-05-22T13:55:30.537Z,5.87
2019-05-22T13:58:01.117Z,6.50
2019-05-22T14:00:31.971Z,6.83
2019-05-22T14:03:01.259Z,7.30
2019-05-22T14:05:30.942Z,7.20
2019-05-22T14:08:00.848Z,6.93
2019-05-22T14:10:31.350Z,8.43
2019-05-22T14:13:02.005Z,8.93
2019-05-22T14:15:48.223Z,8.70
2019-05-22T14:18:02.899Z,8.67
2019-05-22T14:20:34.002Z,7.63
2019-05-22T14:23:03.265Z,8.57
2019-05-22T14:25:33.985Z,6.80
2019-05-22T14:28:06.245Z,7.00
2019-05-22T14:30:35.980Z,6.73
2019-05-22T14:33:05.575Z,7.40
2019-05-22T14:35:48.525Z,7.00
2019-05-22T14:38:11.772Z,7.23
2019-05-22T14:40:42.116Z,7.43
2019-05-22T14:43:11.965Z,8.27
2019-05-22T14:45:42.729Z,5.87
2019-05-22T14:48:12.576Z,4.70
2019-05-22T14:50:42.150Z,4.97
2019-05-22T14:53:12.321Z,4.90
2019-05-22T14:55:43.160Z,4.63
2019-05-22T14:58:13.476Z,3.60
2019-05-22T15:00:43.155Z,3.93
2019-05-22T15:03:12.514Z,3.90
2019-05-22T15:05:41.700Z,3.70
2019-05-22T15:08:11.832Z,3.10
2019-05-22T15:10:41.648Z,3.60
2019-05-22T15:13:11.031Z,3.50
2019-05-22T15:15:41.466Z,3.60
2019-05-22T15:18:11.484Z,3.13
2019-05-22T15:20:52.618Z,3.50
2019-05-22T15:23:29.000Z,3.40
2019-05-22T15:25:58.326Z,3.10
2019-05-22T15:28:28.390Z,3.20
2019-05-22T15:30:58.044Z,2.80
2019-05-22T15:33:32.279Z,3.10
2019-05-22T15:36:06.576Z,3.10
2019-05-22T15:38:35.116Z,3.10
2019-05-22T15:41:07.680Z,2.97
2019-05-22T15:43:38.282Z,3.20
2019-05-22T15:46:10.239Z,3.10
2019-05-22T15:48:43.041Z,2.73
2019-05-22T15:51:13.946Z,2.70
2019-05-22T15:53:47.651Z,2.73
2019-05-22T15:56:19.290Z,2.80
2019-05-22T15:58:53.505Z,2.83
2019-05-22T16:01:26.288Z,2.97
2019-05-22T16:03:57.198Z,2.77
2019-05-22T16:06:28.935Z,3.07
2019-05-22T16:08:59.158Z,2.77
2019-05-22T16:11:31.396Z,2.70
2019-05-22T16:14:05.082Z,2.73
2019-05-22T16:16:40.093Z,2.60
2019-05-22T16:19:11.950Z,2.60
2019-05-22T16:21:47.212Z,2.87
2019-05-22T16:24:17.892Z,2.83
2019-05-22T16:26:49.625Z,2.83
2019-05-22T16:29:21.904Z,2.47
2019-05-22T16:31:53.117Z,2.50
2019-05-22T16:34:23.313Z,2.40
2019-05-22T16:36:54.265Z,2.40
2019-05-22T16:39:24.850Z,2.30
2019-05-22T16:41:55.347Z,2.50
2019-05-22T16:44:25.332Z,2.17
2019-05-22T16:46:57.098Z,2.37
2019-05-22T16:49:28.304Z,1.97
2019-05-22T16:51:59.131Z,2.47
2019-05-22T16:54:30.106Z,2.37
2019-05-22T16:57:01.221Z,2.40
2019-05-22T16:59:31.617Z,2.23
2019-05-22T17:02:01.987Z,2.20
2019-05-22T17:04:32.265Z,1.90
2019-05-22T17:07:01.650Z,2.07
2019-05-22T17:09:31.740Z,2.30
2019-05-22T17:12:04.919Z,2.10
2019-05-22T17:14:36.581Z,1.83
2019-05-22T17:17:07.350Z,2.30
2019-05-22T17:19:38.934Z,2.20
2019-05-22T17:22:11.910Z,2.30
2019-05-22T17:24:41.341Z,1.90
2019-05-22T17:27:11.799Z,2.10
2019-05-22T17:29:41.416Z,2.27
2019-05-22T17:32:13.097Z,2.10
2019-05-22T17:34:43.118Z,1.90
2019-05-22T17:37:20.186Z,1.90
2019-05-22T17:39:50.897Z,2.17
2019-05-22T17:42:27.417Z,2.50
2019-05-22T17:45:11.808Z,2.30
2019-05-22T17:47:42.773Z,2.20
2019-05-22T17:50:25.882Z,2.10
2019-05-22T17:52:46.107Z,2.03
2019-05-22T17:55:17.770Z,2.30
2019-05-22T17:57:48.022Z,1.80
2019-05-22T18:00:36.503Z,2.20
2019-05-22T18:03:06.977Z,2.00
2019-05-22T18:05:37.247Z,2.20
2019-05-22T18:08:07.122Z,2.47
2019-05-22T18:10:40.522Z,2.10
2019-05-22T18:13:13.921Z,2.30
2019-05-22T18:15:43.152Z,2.20
2019-05-22T18:18:15.523Z,2.20
2019-05-22T18:20:45.320Z,2.20
2019-05-22T18:23:14.717Z,2.40
2019-05-22T18:25:44.647Z,2.43
2019-05-22T18:28:14.282Z,3.00
2019-05-22T18:30:44.800Z,2.13
2019-05-22T18:33:16.059Z,3.30
2019-05-22T18:35:46.074Z,3.10
2019-05-22T18:38:17.534Z,3.10
2019-05-22T18:40:46.738Z,2.50
2019-05-22T18:43:22.330Z,2.10
2019-05-22T18:45:51.058Z,2.87
2019-05-22T18:48:20.444Z,3.30
2019-05-22T18:50:50.411Z,2.73
2019-05-22T18:53:19.593Z,3.03
2019-05-22T18:55:49.165Z,2.60
2019-05-22T18:58:22.121Z,2.80
2019-05-22T19:00:52.452Z,2.60
2019-05-22T19:03:22.335Z,2.87
2019-05-22T19:05:52.092Z,2.70
2019-05-22T19:08:22.605Z,3.10
2019-05-22T19:10:52.527Z,3.20
2019-05-22T19:13:22.356Z,4.00
2019-05-22T19:15:54.411Z,4.70
2019-05-22T19:18:25.754Z,6.10
2019-05-22T19:20:55.459Z,6.10
2019-05-22T19:23:26.056Z,6.00
2019-05-22T19:25:56.712Z,4.67
2019-05-22T19:28:42.282Z,6.17
2019-05-22T19:30:57.855Z,5.57
2019-05-22T19:33:29.448Z,5.97
2019-05-22T19:35:58.903Z,4.00
2019-05-22T19:38:28.387Z,3.60
2019-05-22T19:40:58.395Z,3.10
2019-05-22T19:43:27.968Z,3.70
2019-05-22T19:45:57.397Z,3.90
2019-05-22T19:48:26.607Z,3.40
2019-05-22T19:51:01.775Z,3.17
2019-05-22T19:53:31.357Z,3.67
2019-05-22T19:56:01.406Z,3.53
2019-05-22T19:58:32.389Z,3.60
2019-05-22T20:01:10.194Z,3.83
2019-05-22T20:03:42.014Z,3.50
2019-05-22T20:06:12.557Z,3.70
2019-05-22T20:08:43.570Z,3.87
2019-05-22T20:11:12.994Z,3.57
2019-05-22T20:13:42.765Z,4.27
2019-05-22T20:16:12.219Z,3.60
2019-05-22T20:18:41.776Z,4.03
2019-05-22T20:21:12.754Z,3.87
2019-05-22T20:23:43.278Z,3.73
2019-05-22T20:26:12.816Z,3.80
2019-05-22T20:28:42.844Z,7.90
2019-05-22T20:31:12.949Z,12.83
2019-05-22T20:33:42.166Z,5.10
2019-05-22T20:36:11.621Z,4.20
2019-05-22T20:38:43.119Z,4.70
2019-05-22T20:41:13.748Z,4.43
2019-05-22T20:43:43.918Z,4.10
2019-05-22T20:46:14.850Z,3.93
2019-05-22T20:48:45.048Z,4.00
2019-05-22T20:51:19.105Z,4.43
2019-05-22T20:53:53.982Z,4.17
2019-05-22T20:56:23.862Z,3.93
2019-05-22T20:58:54.456Z,4.17
2019-05-22T21:01:24.882Z,4.17
2019-05-22T21:04:00.536Z,4.30
2019-05-22T21:06:32.571Z,4.63
2019-05-22T21:09:05.335Z,4.30
2019-05-22T21:11:38.522Z,4.63
2019-05-22T21:14:09.792Z,4.87
2019-05-22T21:16:39.982Z,6.67
2019-05-22T21:19:11.574Z,6.57
2019-05-22T21:21:42.038Z,6.53
2019-05-22T21:24:12.596Z,5.50
2019-05-22T21:26:42.617Z,7.67
2019-05-22T21:29:11.834Z,7.70
2019-05-22T21:31:41.604Z,7.20
2019-05-22T21:34:11.639Z,11.03
2019-05-22T21:36:41.325Z,11.60
2019-05-22T21:39:13.213Z,8.13
2019-05-22T21:41:42.684Z,7.10
2019-05-22T21:44:11.859Z,5.70
2019-05-22T21:46:42.039Z,5.90
2019-05-22T21:49:13.382Z,5.90
2019-05-22T21:51:43.249Z,5.50
2019-05-22T21:54:13.507Z,5.00
2019-05-22T21:56:44.462Z,5.20
2019-05-22T21:59:14.409Z,5.17
2019-05-22T22:01:55.635Z,4.60
2019-05-22T22:04:40.160Z,4.90
2019-05-22T22:07:10.464Z,5.20
2019-05-22T22:09:40.284Z,5.10
2019-05-22T22:12:12.106Z,5.03
2019-05-22T22:14:43.333Z,5.43
2019-05-22T22:17:14.622Z,5.13
2019-05-22T22:19:44.474Z,5.07
2019-05-22T22:22:17.091Z,5.63
2019-05-22T22:24:46.874Z,5.23
2019-05-22T22:27:16.460Z,5.57
2019-05-22T22:29:49.020Z,5.33
2019-05-22T22:32:23.643Z,5.20
2019-05-22T22:34:53.869Z,5.70
2019-05-22T22:37:24.692Z,5.53
2019-05-22T22:39:56.553Z,5.37
2019-05-22T22:42:29.426Z,6.30
2019-05-22T22:44:59.776Z,5.97
2019-05-22T22:47:40.550Z,6.07
2019-05-22T22:50:13.354Z,5.97
2019-05-22T22:52:47.766Z,5.87
2019-05-22T22:55:20.076Z,5.27
2019-05-22T22:57:52.446Z,6.10
2019-05-22T23:00:32.259Z,5.67
2019-05-22T23:03:02.348Z,5.93
2019-05-22T23:05:34.281Z,6.40
2019-05-22T23:08:04.137Z,5.73
2019-05-22T23:10:35.525Z,5.70
2019-05-22T23:13:11.251Z,5.53
2019-05-22T23:15:43.898Z,6.03
2019-05-22T23:18:18.711Z,6.20
2019-05-22T23:20:46.218Z,6.37
2019-05-22T23:23:19.133Z,6.20
2019-05-22T23:25:50.443Z,6.37
2019-05-22T23:28:33.791Z,5.93
2019-05-22T23:30:53.697Z,6.23
2019-05-22T23:33:23.821Z,6.40
2019-05-22T23:35:55.750Z,6.60
2019-05-22T23:38:25.950Z,5.70
2019-05-22T23:40:57.345Z,7.00
2019-05-22T23:43:29.181Z,6.73
2019-05-22T23:45:59.234Z,5.77
2019-05-22T23:48:29.874Z,6.30
2019-05-22T23:51:02.491Z,6.10
2019-05-22T23:53:32.907Z,6.60
2019-05-22T23:56:02.964Z,7.07
2019-05-22T23:58:32.631Z,7.40
